CheckWX is a tool to help pilots better visualize weather data.  It is not intended as a substitute for an official pre-flight weather briefing.

14:56:01 UTC

KMLI METAR
Quad City International Airport
Moline, Illinois, USA
Current

1 hour ago

KMLI 191352Z 32003KT 4SM BR OVC005 02/01 A2976 RMK AO2 UPE1253B02E15 SLP082 P0000 T00220011
Observed
Nov-19 @ 13:52 UTC
Wind
  • 320° at 3 KTS
Visibility
4 SM
Flight Rules
IFR
Conditions
Mist
Cloud Levels
  • Overcast at 500' AGL
Temperature
C / 36°F
Dewpoint
C / 34°F
Humidity
93%
Altimeter
29.76" Hg
Pressure
1007.82 hPa
Current Rain
0.01"
Previous

1 hour ago

KMLI 191352Z COR 32003KT 2SM BR OVC005 02/01 A2976 RMK AO2 UPE1253B02E15 SLP082 P0000 T00220011
Observed
Nov-19 @ 13:52 UTC
Wind
  • 320° at 3 KTS
Visibility
2 SM
Flight Rules
IFR
Conditions
Mist
Cloud Levels
  • Overcast at 500' AGL
Temperature
C / 36°F
Dewpoint
C / 34°F
Humidity
93%
Altimeter
29.76" Hg
Pressure
1007.82 hPa
Current Rain
0.01"
Previous

1 hour ago

KMLI 191340Z 33003KT 4SM BR BKN005 OVC011 02/01 A2976 RMK AO2 UPE1253B02E15 P0000 T00220011
Observed
Nov-19 @ 13:40 UTC
Wind
  • 330° at 3 KTS
Visibility
4 SM
Flight Rules
IFR
Conditions
Mist
Cloud Levels
  • Broken at 500' AGL
  • Overcast at 1,100' AGL
Temperature
C / 36°F
Dewpoint
C / 34°F
Humidity
93%
Altimeter
29.76" Hg
Pressure
1007.82 hPa
Current Rain
0.01"